Strona główna
METAR-TAF:

METAR-TAF

Lotnisko :

Bamako, Mali

Port lotniczy Bamako

Szerokość geograficzna: 12-32N, Długość geograficzna: 007-57W, wysokość: 380 m

Aktualna obserwacja pogody

Raport powstał 49 minut temu, godzina 11:00 UTC
Wiatr 11 kt od północno-północny wschód
Temperatura 26°C
Wilgotność 20%
Ciśnienie 1017 hPa
Widzialność 10 km lub więcej
Brak chmur poniżej 1500 m i brak chmur cumulonimbus

METAR: GABS 181100Z 03011KT CAVOK 26/01 Q1017 NOSIG

czas: 11:49 (11:49 UTC)

Prognoza

Raport powstał 6 godziny i 49 minut temu, godzina 05:00 UTC
Prognoza ważna od 18 godzina 06 UTC do 19 godzina 12 UTC
Wiatr 10 kt od północ
Widzialność: 6000 m
Prawdopodobieństwo 40% :
Przejściowo
od 18 godzina 12 UTC do 18 godzina 18 UTC
Widzialność: 4500 m
zmętnienie

TAF: GABS 180500Z 1806/1912 01010KT 6000 NSC PROB40 TEMPO 1812/1818 4500 HZ

Obserwacja i prognoza pogody dla ponad 4000 lotnisk (raport METAR i TAF).

Dostępne stacje oznaczono żółtymi i czerwonymi punktami na mapie.

Najedź kursorem aby zobaczyć nazwę stacji.

Kliknij aby zobaczyć obserwacje i prognozy pogody.

Aby zmienić mapę: kliknij na zielony przycisk z czarnym krzyżykiem, aby powiększyć; na zielony przycisk z myślnikiem, aby pomniejszyć; na zielone strzałki, aby przejść do map sąsiednich.


METAR-TAF: